sensor_id;sensor_type;location;lat;lon;timestamp;pressure;altitude;pressure_sealevel;temperature;humidity
70544;BME280;58097;48.364;-1.224;2023-04-25T00:01:03;99411.38;;;8.78;78.84
70544;BME280;58097;48.364;-1.224;2023-04-25T00:03:30;99408.09;;;8.75;79.23
70544;BME280;58097;48.364;-1.224;2023-04-25T00:05:57;99410.47;;;8.69;78.61
70544;BME280;58097;48.364;-1.224;2023-04-25T00:08:23;99419.19;;;8.65;78.43
70544;BME280;58097;48.364;-1.224;2023-04-25T00:10:48;99419.50;;;8.62;78.48
70544;BME280;58097;48.364;-1.224;2023-04-25T00:13:14;99414.00;;;8.62;78.46
70544;BME280;58097;48.364;-1.224;2023-04-25T00:15:40;99414.31;;;8.59;78.43
70544;BME280;58097;48.364;-1.224;2023-04-25T00:18:07;99410.00;;;8.56;78.56
70544;BME280;58097;48.364;-1.224;2023-04-25T00:20:32;99416.69;;;8.54;78.68
70544;BME280;58097;48.364;-1.224;2023-04-25T00:22:58;99413.94;;;8.54;78.63
70544;BME280;58097;48.364;-1.224;2023-04-25T00:25:23;99426.00;;;8.53;78.59
70544;BME280;58097;48.364;-1.224;2023-04-25T00:27:48;99413.72;;;8.47;78.46
70544;BME280;58097;48.364;-1.224;2023-04-25T00:30:14;99419.72;;;8.43;78.26
70544;BME280;58097;48.364;-1.224;2023-04-25T00:32:39;99418.31;;;8.38;78.29
70544;BME280;58097;48.364;-1.224;2023-04-25T00:35:05;99412.22;;;8.35;78.32
70544;BME280;58097;48.364;-1.224;2023-04-25T00:37:31;99416.00;;;8.34;78.46
70544;BME280;58097;48.364;-1.224;2023-04-25T00:39:58;99409.94;;;8.30;78.38
70544;BME280;58097;48.364;-1.224;2023-04-25T00:42:24;99421.25;;;8.27;78.57
70544;BME280;58097;48.364;-1.224;2023-04-25T00:44:51;99422.44;;;8.25;78.62
70544;BME280;58097;48.364;-1.224;2023-04-25T00:47:17;99418.81;;;8.24;78.90
70544;BME280;58097;48.364;-1.224;2023-04-25T00:49:42;99420.88;;;8.22;78.78
70544;BME280;58097;48.364;-1.224;2023-04-25T00:52:08;99417.59;;;8.19;78.54
70544;BME280;58097;48.364;-1.224;2023-04-25T00:54:33;99419.63;;;8.17;78.45
70544;BME280;58097;48.364;-1.224;2023-04-25T00:56:59;99406.91;;;8.16;78.57
70544;BME280;58097;48.364;-1.224;2023-04-25T00:59:26;99414.59;;;8.12;78.39
70544;BME280;58097;48.364;-1.224;2023-04-25T01:01:52;99414.75;;;8.11;78.51
70544;BME280;58097;48.364;-1.224;2023-04-25T01:04:18;99407.09;;;8.04;78.47
70544;BME280;58097;48.364;-1.224;2023-04-25T01:06:43;99415.69;;;8.01;78.44
70544;BME280;58097;48.364;-1.224;2023-04-25T01:09:09;99425.44;;;7.96;78.21
70544;BME280;58097;48.364;-1.224;2023-04-25T01:11:34;99431.25;;;7.93;78.47
70544;BME280;58097;48.364;-1.224;2023-04-25T01:14:00;99411.13;;;7.92;78.66
70544;BME280;58097;48.364;-1.224;2023-04-25T01:16:27;99406.66;;;7.91;78.76
70544;BME280;58097;48.364;-1.224;2023-04-25T01:18:54;99425.91;;;7.91;78.82
70544;BME280;58097;48.364;-1.224;2023-04-25T01:21:20;99412.47;;;7.88;78.81
70544;BME280;58097;48.364;-1.224;2023-04-25T01:23:46;99410.91;;;7.86;78.78
70544;BME280;58097;48.364;-1.224;2023-04-25T01:26:12;99411.38;;;7.81;78.70
70544;BME280;58097;48.364;-1.224;2023-04-25T01:28:39;99417.59;;;7.83;79.22
70544;BME280;58097;48.364;-1.224;2023-04-25T01:31:07;99411.38;;;7.81;79.00
70544;BME280;58097;48.364;-1.224;2023-04-25T01:33:32;99417.88;;;7.80;78.82
70544;BME280;58097;48.364;-1.224;2023-04-25T01:35:58;99413.53;;;7.77;79.03
70544;BME280;58097;48.364;-1.224;2023-04-25T01:38:23;99408.34;;;7.74;79.12
70544;BME280;58097;48.364;-1.224;2023-04-25T01:40:50;99408.34;;;7.74;79.22
70544;BME280;58097;48.364;-1.224;2023-04-25T01:43:16;99407.81;;;7.71;79.00
70544;BME280;58097;48.364;-1.224;2023-04-25T01:45:42;99399.72;;;7.69;79.41
70544;BME280;58097;48.364;-1.224;2023-04-25T01:48:12;99399.56;;;7.71;79.60
70544;BME280;58097;48.364;-1.224;2023-04-25T01:50:38;99394.22;;;7.69;79.55
70544;BME280;58097;48.364;-1.224;2023-04-25T01:53:04;99389.56;;;7.70;79.36
70544;BME280;58097;48.364;-1.224;2023-04-25T01:55:30;99391.63;;;7.68;79.38
70544;BME280;58097;48.364;-1.224;2023-04-25T01:57:56;99392.63;;;7.67;79.39
70544;BME280;58097;48.364;-1.224;2023-04-25T02:00:21;99387.59;;;7.62;79.16
70544;BME280;58097;48.364;-1.224;2023-04-25T02:02:47;99392.41;;;7.60;79.16
70544;BME280;58097;48.364;-1.224;2023-04-25T02:05:12;99391.38;;;7.61;79.45
70544;BME280;58097;48.364;-1.224;2023-04-25T02:07:37;99385.16;;;7.59;79.66
70544;BME280;58097;48.364;-1.224;2023-04-25T02:10:03;99390.81;;;7.58;79.65
70544;BME280;58097;48.364;-1.224;2023-04-25T02:12:29;99400.97;;;7.57;79.80
70544;BME280;58097;48.364;-1.224;2023-04-25T02:14:54;99409.38;;;7.56;80.21
70544;BME280;58097;48.364;-1.224;2023-04-25T02:17:19;99405.75;;;7.55;79.81
70544;BME280;58097;48.364;-1.224;2023-04-25T02:19:47;99402.28;;;7.53;79.73
70544;BME280;58097;48.364;-1.224;2023-04-25T02:22:12;99405.03;;;7.53;79.87
70544;BME280;58097;48.364;-1.224;2023-04-25T02:24:38;99403.16;;;7.54;80.00
70544;BME280;58097;48.364;-1.224;2023-04-25T02:27:03;99395.78;;;7.54;80.43
70544;BME280;58097;48.364;-1.224;2023-04-25T02:29:29;99404.41;;;7.59;80.76
70544;BME280;58097;48.364;-1.224;2023-04-25T02:31:55;99404.97;;;7.63;80.72
70544;BME280;58097;48.364;-1.224;2023-04-25T02:34:20;99413.47;;;7.69;80.84
70544;BME280;58097;48.364;-1.224;2023-04-25T02:36:45;99407.97;;;7.69;80.81
70544;BME280;58097;48.364;-1.224;2023-04-25T02:39:11;99406.63;;;7.73;80.70
70544;BME280;58097;48.364;-1.224;2023-04-25T02:41:36;99411.97;;;7.75;80.76
70544;BME280;58097;48.364;-1.224;2023-04-25T02:44:02;99406.63;;;7.73;80.45
70544;BME280;58097;48.364;-1.224;2023-04-25T02:46:27;99408.19;;;7.76;81.05
70544;BME280;58097;48.364;-1.224;2023-04-25T02:48:52;99412.28;;;7.72;80.50
70544;BME280;58097;48.364;-1.224;2023-04-25T02:51:18;99417.94;;;7.70;80.83
70544;BME280;58097;48.364;-1.224;2023-04-25T02:53:44;99419.81;;;7.70;80.66
70544;BME280;58097;48.364;-1.224;2023-04-25T02:56:09;99422.72;;;7.68;80.67
70544;BME280;58097;48.364;-1.224;2023-04-25T02:58:35;99425.78;;;7.65;80.58
70544;BME280;58097;48.364;-1.224;2023-04-25T03:01:00;99428.53;;;7.65;80.70
70544;BME280;58097;48.364;-1.224;2023-04-25T03:03:25;99440.41;;;7.66;80.33
70544;BME280;58097;48.364;-1.224;2023-04-25T03:05:51;99427.69;;;7.65;80.37
70544;BME280;58097;48.364;-1.224;2023-04-25T03:08:17;99430.28;;;7.66;80.36
70544;BME280;58097;48.364;-1.224;2023-04-25T03:10:43;99430.97;;;7.68;80.46
70544;BME280;58097;48.364;-1.224;2023-04-25T03:13:09;99432.72;;;7.69;80.85
70544;BME280;58097;48.364;-1.224;2023-04-25T03:15:35;99430.66;;;7.71;80.81
70544;BME280;58097;48.364;-1.224;2023-04-25T03:18:01;99426.59;;;7.75;80.91
70544;BME280;58097;48.364;-1.224;2023-04-25T03:20:26;99433.66;;;7.78;80.82
70544;BME280;58097;48.364;-1.224;2023-04-25T03:22:52;99429.88;;;7.79;80.81
70544;BME280;58097;48.364;-1.224;2023-04-25T03:25:17;99428.00;;;7.80;80.59
70544;BME280;58097;48.364;-1.224;2023-04-25T03:27:43;99430.75;;;7.80;80.47
70544;BME280;58097;48.364;-1.224;2023-04-25T03:30:08;99433.66;;;7.78;80.53
70544;BME280;58097;48.364;-1.224;2023-04-25T03:32:34;99435.38;;;7.79;80.64
70544;BME280;58097;48.364;-1.224;2023-04-25T03:35:00;99434.38;;;7.80;80.62
70544;BME280;58097;48.364;-1.224;2023-04-25T03:37:25;99448.00;;;7.82;80.59
70544;BME280;58097;48.364;-1.224;2023-04-25T03:39:50;99446.09;;;7.82;80.55
70544;BME280;58097;48.364;-1.224;2023-04-25T03:42:16;99444.22;;;7.83;80.65
70544;BME280;58097;48.364;-1.224;2023-04-25T03:44:42;99447.69;;;7.85;80.62
70544;BME280;58097;48.364;-1.224;2023-04-25T03:47:07;99449.72;;;7.83;80.41
70544;BME280;58097;48.364;-1.224;2023-04-25T03:49:34;99454.22;;;7.84;80.60
70544;BME280;58097;48.364;-1.224;2023-04-25T03:52:01;99457.81;;;7.84;80.62
70544;BME280;58097;48.364;-1.224;2023-04-25T03:54:26;99449.41;;;7.86;80.59
70544;BME280;58097;48.364;-1.224;2023-04-25T03:56:51;99444.06;;;7.84;80.66
70544;BME280;58097;48.364;-1.224;2023-04-25T03:59:17;99445.94;;;7.84;80.65
70544;BME280;58097;48.364;-1.224;2023-04-25T04:01:42;99449.72;;;7.83;80.58
70544;BME280;58097;48.364;-1.224;2023-04-25T04:04:07;99454.53;;;7.81;80.58
70544;BME280;58097;48.364;-1.224;2023-04-25T04:06:33;99454.81;;;7.77;80.61
70544;BME280;58097;48.364;-1.224;2023-04-25T04:08:59;99448.59;;;7.75;80.58
70544;BME280;58097;48.364;-1.224;2023-04-25T04:11:24;99454.25;;;7.74;80.51
70544;BME280;58097;48.364;-1.224;2023-04-25T04:13:49;99447.03;;;7.73;80.53
70544;BME280;58097;48.364;-1.224;2023-04-25T04:16:15;99452.69;;;7.71;80.63
70544;BME280;58097;48.364;-1.224;2023-04-25T04:18:40;99453.69;;;7.70;80.49
70544;BME280;58097;48.364;-1.224;2023-04-25T04:21:05;99454.16;;;7.66;80.49
70544;BME280;58097;48.364;-1.224;2023-04-25T04:23:31;99460.13;;;7.61;80.39
70544;BME280;58097;48.364;-1.224;2023-04-25T04:25:56;99462.31;;;7.58;80.29
70544;BME280;58097;48.364;-1.224;2023-04-25T04:28:22;99462.47;;;7.56;80.54
70544;BME280;58097;48.364;-1.224;2023-04-25T04:30:47;99461.91;;;7.53;80.22
70544;BME280;58097;48.364;-1.224;2023-04-25T04:33:13;99462.19;;;7.50;80.02
70544;BME280;58097;48.364;-1.224;2023-04-25T04:35:40;99468.88;;;7.47;80.00
70544;BME280;58097;48.364;-1.224;2023-04-25T04:38:06;99465.41;;;7.45;79.85
70544;BME280;58097;48.364;-1.224;2023-04-25T04:40:32;99457.63;;;7.40;79.82
70544;BME280;58097;48.364;-1.224;2023-04-25T04:42:57;99459.81;;;7.37;80.14
70544;BME280;58097;48.364;-1.224;2023-04-25T04:45:23;99466.63;;;7.33;80.18
70544;BME280;58097;48.364;-1.224;2023-04-25T04:47:49;99453.91;;;7.32;80.20
70544;BME280;58097;48.364;-1.224;2023-04-25T04:50:15;99462.47;;;7.29;80.13
70544;BME280;58097;48.364;-1.224;2023-04-25T04:52:41;99460.03;;;7.26;80.11
70544;BME280;58097;48.364;-1.224;2023-04-25T04:55:07;99465.78;;;7.23;80.20
70544;BME280;58097;48.364;-1.224;2023-04-25T04:57:34;99472.31;;;7.22;80.17
70544;BME280;58097;48.364;-1.224;2023-04-25T05:00:00;99477.97;;;7.20;80.16
70544;BME280;58097;48.364;-1.224;2023-04-25T05:02:26;99483.75;;;7.17;80.18
70544;BME280;58097;48.364;-1.224;2023-04-25T05:04:51;99490.28;;;7.16;80.28
70544;BME280;58097;48.364;-1.224;2023-04-25T05:07:17;99485.78;;;7.15;80.19
70544;BME280;58097;48.364;-1.224;2023-04-25T05:09:43;99488.69;;;7.13;80.34
70544;BME280;58097;48.364;-1.224;2023-04-25T05:12:08;99491.84;;;7.19;80.61
70544;BME280;58097;48.364;-1.224;2023-04-25T05:14:34;99496.31;;;7.20;80.65
70544;BME280;58097;48.364;-1.224;2023-04-25T05:16:59;99508.03;;;7.22;80.95
70544;BME280;58097;48.364;-1.224;2023-04-25T05:19:25;99512.50;;;7.23;81.19
70544;BME280;58097;48.364;-1.224;2023-04-25T05:21:51;99518.75;;;7.25;81.15
70544;BME280;58097;48.364;-1.224;2023-04-25T05:24:17;99524.09;;;7.26;81.20
70544;BME280;58097;48.364;-1.224;2023-04-25T05:26:42;99520.19;;;7.29;81.28
70544;BME280;58097;48.364;-1.224;2023-04-25T05:29:07;99532.75;;;7.31;81.52
70544;BME280;58097;48.364;-1.224;2023-04-25T05:31:33;99535.06;;;7.36;81.53
70544;BME280;58097;48.364;-1.224;2023-04-25T05:33:58;99529.41;;;7.37;81.67
70544;BME280;58097;48.364;-1.224;2023-04-25T05:36:23;99530.97;;;7.40;81.58
70544;BME280;58097;48.364;-1.224;2023-04-25T05:38:49;99531.53;;;7.43;81.60
70544;BME280;58097;48.364;-1.224;2023-04-25T05:41:14;99540.50;;;7.45;81.78
70544;BME280;58097;48.364;-1.224;2023-04-25T05:43:40;99536.88;;;7.45;81.67
70544;BME280;58097;48.364;-1.224;2023-04-25T05:46:10;99538.31;;;7.49;81.76
70544;BME280;58097;48.364;-1.224;2023-04-25T05:48:36;99544.13;;;7.46;81.42
70544;BME280;58097;48.364;-1.224;2023-04-25T05:51:01;99555.84;;;7.48;81.82
70544;BME280;58097;48.364;-1.224;2023-04-25T05:53:26;99559.03;;;7.53;82.01
70544;BME280;58097;48.364;-1.224;2023-04-25T05:55:52;99563.91;;;7.59;82.13
70544;BME280;58097;48.364;-1.224;2023-04-25T05:58:17;99560.25;;;7.68;82.34
70544;BME280;58097;48.364;-1.224;2023-04-25T06:00:42;99555.16;;;7.73;82.11
70544;BME280;58097;48.364;-1.224;2023-04-25T06:03:08;99559.16;;;7.79;82.23
70544;BME280;58097;48.364;-1.224;2023-04-25T06:05:35;99560.63;;;7.83;82.21
70544;BME280;58097;48.364;-1.224;2023-04-25T06:08:00;99555.38;;;7.90;82.08
70544;BME280;58097;48.364;-1.224;2023-04-25T06:10:26;99548.53;;;7.94;82.20
70544;BME280;58097;48.364;-1.224;2023-04-25T06:12:51;99557.91;;;8.01;82.12
70544;BME280;58097;48.364;-1.224;2023-04-25T06:15:17;99559.00;;;8.08;82.15
70544;BME280;58097;48.364;-1.224;2023-04-25T06:17:42;99566.38;;;8.17;82.38
70544;BME280;58097;48.364;-1.224;2023-04-25T06:20:08;99570.53;;;8.21;82.36
70544;BME280;58097;48.364;-1.224;2023-04-25T06:22:34;99574.25;;;8.30;82.35
70544;BME280;58097;48.364;-1.224;2023-04-25T06:24:59;99572.78;;;8.35;82.34
70544;BME280;58097;48.364;-1.224;2023-04-25T06:27:25;99580.59;;;8.40;82.29
70544;BME280;58097;48.364;-1.224;2023-04-25T06:29:50;99573.44;;;8.47;82.74
70544;BME280;58097;48.364;-1.224;2023-04-25T06:32:16;99573.44;;;8.65;82.80
70544;BME280;58097;48.364;-1.224;2023-04-25T06:34:43;99571.22;;;8.86;83.54
70544;BME280;58097;48.364;-1.224;2023-04-25T06:37:08;99573.00;;;9.13;83.61
70544;BME280;58097;48.364;-1.224;2023-04-25T06:39:33;99570.06;;;9.32;83.18
70544;BME280;58097;48.364;-1.224;2023-04-25T06:41:59;99578.28;;;9.50;83.33
70544;BME280;58097;48.364;-1.224;2023-04-25T06:44:24;99583.53;;;9.61;82.97
70544;BME280;58097;48.364;-1.224;2023-04-25T06:46:51;99583.84;;;9.84;83.84
70544;BME280;58097;48.364;-1.224;2023-04-25T06:49:16;99582.38;;;10.06;83.55
70544;BME280;58097;48.364;-1.224;2023-04-25T06:51:42;99579.75;;;10.31;81.48
70544;BME280;58097;48.364;-1.224;2023-04-25T06:54:07;99589.13;;;10.46;82.36
70544;BME280;58097;48.364;-1.224;2023-04-25T06:56:32;99595.03;;;10.67;81.54
70544;BME280;58097;48.364;-1.224;2023-04-25T06:58:58;99593.16;;;10.84;82.30
70544;BME280;58097;48.364;-1.224;2023-04-25T07:01:25;99593.72;;;11.04;81.05
70544;BME280;58097;48.364;-1.224;2023-04-25T07:03:51;99599.75;;;11.07;80.90
70544;BME280;58097;48.364;-1.224;2023-04-25T07:06:16;99603.91;;;11.03;80.66
70544;BME280;58097;48.364;-1.224;2023-04-25T07:08:41;99615.81;;;10.96;79.94
70544;BME280;58097;48.364;-1.224;2023-04-25T07:11:07;99605.09;;;10.84;78.87
70544;BME280;58097;48.364;-1.224;2023-04-25T07:13:32;99608.53;;;10.70;78.42
70544;BME280;58097;48.364;-1.224;2023-04-25T07:15:57;99606.84;;;10.35;78.66
70544;BME280;58097;48.364;-1.224;2023-04-25T07:18:23;99603.16;;;10.18;79.44
70544;BME280;58097;48.364;-1.224;2023-04-25T07:20:48;99597.56;;;10.10;79.87
70544;BME280;58097;48.364;-1.224;2023-04-25T07:23:13;99604.09;;;10.01;79.47
70544;BME280;58097;48.364;-1.224;2023-04-25T07:25:39;99603.78;;;9.78;80.46
70544;BME280;58097;48.364;-1.224;2023-04-25T07:28:04;99601.91;;;9.79;80.84
70544;BME280;58097;48.364;-1.224;2023-04-25T07:30:30;99610.19;;;9.79;80.61
70544;BME280;58097;48.364;-1.224;2023-04-25T07:32:55;99605.69;;;9.78;80.73
70544;BME280;58097;48.364;-1.224;2023-04-25T07:35:21;99609.47;;;9.77;80.59
70544;BME280;58097;48.364;-1.224;2023-04-25T07:37:46;99618.44;;;9.79;80.51
70544;BME280;58097;48.364;-1.224;2023-04-25T07:40:11;99619.00;;;9.82;80.63
70544;BME280;58097;48.364;-1.224;2023-04-25T07:42:37;99619.84;;;9.83;81.03
70544;BME280;58097;48.364;-1.224;2023-04-25T07:45:02;99621.91;;;9.81;80.64
70544;BME280;58097;48.364;-1.224;2023-04-25T07:47:28;99621.38;;;9.77;80.45
70544;BME280;58097;48.364;-1.224;2023-04-25T07:49:53;99616.72;;;9.78;80.61
70544;BME280;58097;48.364;-1.224;2023-04-25T07:52:19;99623.97;;;9.79;80.46
70544;BME280;58097;48.364;-1.224;2023-04-25T07:54:44;99627.59;;;9.79;80.78
70544;BME280;58097;48.364;-1.224;2023-04-25T07:57:10;99627.44;;;9.81;81.37
70544;BME280;58097;48.364;-1.224;2023-04-25T07:59:35;99631.00;;;9.73;81.22
70544;BME280;58097;48.364;-1.224;2023-04-25T08:02:01;99636.03;;;9.78;81.23
70544;BME280;58097;48.364;-1.224;2023-04-25T08:04:27;99635.88;;;9.79;81.58
70544;BME280;58097;48.364;-1.224;2023-04-25T08:06:53;99633.41;;;9.94;81.70
70544;BME280;58097;48.364;-1.224;2023-04-25T08:09:19;99634.13;;;10.04;81.27
70544;BME280;58097;48.364;-1.224;2023-04-25T08:11:44;99643.16;;;10.14;80.80
70544;BME280;58097;48.364;-1.224;2023-04-25T08:14:11;99633.91;;;10.23;79.57
70544;BME280;58097;48.364;-1.224;2023-04-25T08:16:36;99644.31;;;10.38;80.48
70544;BME280;58097;48.364;-1.224;2023-04-25T08:19:02;99643.69;;;10.44;79.16
70544;BME280;58097;48.364;-1.224;2023-04-25T08:21:27;99643.50;;;10.45;78.61
70544;BME280;58097;48.364;-1.224;2023-04-25T08:23:52;99641.63;;;10.54;78.85
70544;BME280;58097;48.364;-1.224;2023-04-25T08:26:18;99652.19;;;10.59;77.51
70544;BME280;58097;48.364;-1.224;2023-04-25T08:28:43;99653.44;;;10.72;78.86
70544;BME280;58097;48.364;-1.224;2023-04-25T08:31:08;99654.50;;;10.96;78.48
70544;BME280;58097;48.364;-1.224;2023-04-25T08:33:34;99653.84;;;11.18;77.40
70544;BME280;58097;48.364;-1.224;2023-04-25T08:35:59;99663.38;;;11.15;75.10
70544;BME280;58097;48.364;-1.224;2023-04-25T08:38:24;99661.94;;;10.95;72.87
70544;BME280;58097;48.364;-1.224;2023-04-25T08:40:50;99671.13;;;11.04;74.30
70544;BME280;58097;48.364;-1.224;2023-04-25T08:43:19;99674.78;;;11.21;75.62
70544;BME280;58097;48.364;-1.224;2023-04-25T08:45:46;99675.28;;;11.24;74.68
70544;BME280;58097;48.364;-1.224;2023-04-25T08:48:14;99686.88;;;11.20;73.60
70544;BME280;58097;48.364;-1.224;2023-04-25T08:50:40;99687.22;;;11.00;71.81
70544;BME280;58097;48.364;-1.224;2023-04-25T08:53:12;99690.41;;;10.71;73.36
70544;BME280;58097;48.364;-1.224;2023-04-25T08:55:41;99688.50;;;10.72;74.74
70544;BME280;58097;48.364;-1.224;2023-04-25T08:58:07;99695.59;;;10.74;74.98
70544;BME280;58097;48.364;-1.224;2023-04-25T09:00:35;99682.75;;;10.65;73.73
70544;BME280;58097;48.364;-1.224;2023-04-25T09:03:01;99689.66;;;10.61;73.28
70544;BME280;58097;48.364;-1.224;2023-04-25T09:05:28;99691.97;;;10.82;74.15
70544;BME280;58097;48.364;-1.224;2023-04-25T09:07:53;99693.59;;;11.01;72.44
70544;BME280;58097;48.364;-1.224;2023-04-25T09:10:19;99687.03;;;11.26;72.49
70544;BME280;58097;48.364;-1.224;2023-04-25T09:12:44;99695.38;;;11.42;69.55
70544;BME280;58097;48.364;-1.224;2023-04-25T09:15:11;99693.13;;;11.54;69.74
70544;BME280;58097;48.364;-1.224;2023-04-25T09:17:37;99690.38;;;11.70;70.37
70544;BME280;58097;48.364;-1.224;2023-04-25T09:20:11;99683.13;;;11.86;70.07
70544;BME280;58097;48.364;-1.224;2023-04-25T09:22:37;99688.44;;;12.03;69.56
70544;BME280;58097;48.364;-1.224;2023-04-25T09:25:12;99684.59;;;12.29;68.58
70544;BME280;58097;48.364;-1.224;2023-04-25T09:27:50;99684.22;;;12.32;66.84
70544;BME280;58097;48.364;-1.224;2023-04-25T09:30:17;99682.81;;;12.44;65.35
70544;BME280;58097;48.364;-1.224;2023-04-25T09:32:43;99691.81;;;12.46;67.84
70544;BME280;58097;48.364;-1.224;2023-04-25T09:35:09;99696.50;;;12.46;67.57
70544;BME280;58097;48.364;-1.224;2023-04-25T09:37:34;99699.88;;;12.64;68.31
70544;BME280;58097;48.364;-1.224;2023-04-25T09:40:04;99696.59;;;12.60;66.59
70544;BME280;58097;48.364;-1.224;2023-04-25T09:42:31;99700.81;;;12.40;64.16
70544;BME280;58097;48.364;-1.224;2023-04-25T09:44:58;99701.72;;;12.32;66.62
70544;BME280;58097;48.364;-1.224;2023-04-25T09:47:24;99707.44;;;12.31;66.42
70544;BME280;58097;48.364;-1.224;2023-04-25T09:49:51;99705.38;;;12.25;68.09
70544;BME280;58097;48.364;-1.224;2023-04-25T09:52:18;99699.84;;;12.25;67.35
70544;BME280;58097;48.364;-1.224;2023-04-25T09:54:45;99701.22;;;12.21;65.74
70544;BME280;58097;48.364;-1.224;2023-04-25T09:57:13;99693.44;;;12.08;66.49
70544;BME280;58097;48.364;-1.224;2023-04-25T09:59:43;99706.47;;;11.91;67.43
70544;BME280;58097;48.364;-1.224;2023-04-25T10:02:10;99695.06;;;11.94;67.92
70544;BME280;58097;48.364;-1.224;2023-04-25T10:04:37;99693.66;;;11.82;66.32
70544;BME280;58097;48.364;-1.224;2023-04-25T10:07:07;99692.44;;;11.85;66.85
70544;BME280;58097;48.364;-1.224;2023-04-25T10:09:33;99702.13;;;11.64;65.20
70544;BME280;58097;48.364;-1.224;2023-04-25T10:12:02;99707.34;;;11.59;65.14
70544;BME280;58097;48.364;-1.224;2023-04-25T10:14:29;99703.00;;;11.65;66.30
70544;BME280;58097;48.364;-1.224;2023-04-25T10:16:55;99696.97;;;11.86;66.68
70544;BME280;58097;48.364;-1.224;2023-04-25T10:19:22;99705.25;;;12.02;66.45
70544;BME280;58097;48.364;-1.224;2023-04-25T10:21:52;99708.09;;;12.41;67.37
70544;BME280;58097;48.364;-1.224;2023-04-25T10:24:19;99713.91;;;12.62;63.34
70544;BME280;58097;48.364;-1.224;2023-04-25T10:26:46;99705.44;;;12.95;64.77
70544;BME280;58097;48.364;-1.224;2023-04-25T10:29:12;99709.19;;;13.10;63.90
70544;BME280;58097;48.364;-1.224;2023-04-25T10:31:45;99707.31;;;13.02;63.61
70544;BME280;58097;48.364;-1.224;2023-04-25T10:34:11;99695.81;;;12.83;62.47
70544;BME280;58097;48.364;-1.224;2023-04-25T10:36:36;99708.31;;;12.70;63.18
70544;BME280;58097;48.364;-1.224;2023-04-25T10:39:06;99718.91;;;12.67;62.81
70544;BME280;58097;48.364;-1.224;2023-04-25T10:41:55;99717.44;;;12.48;60.65
70544;BME280;58097;48.364;-1.224;2023-04-25T10:44:21;99705.91;;;12.76;63.68
70544;BME280;58097;48.364;-1.224;2023-04-25T10:46:46;99708.03;;;12.96;63.44
70544;BME280;58097;48.364;-1.224;2023-04-25T10:49:28;99709.06;;;13.03;62.63
70544;BME280;58097;48.364;-1.224;2023-04-25T10:52:16;99714.25;;;12.98;62.27
70544;BME280;58097;48.364;-1.224;2023-04-25T10:54:53;99719.09;;;12.74;61.45
70544;BME280;58097;48.364;-1.224;2023-04-25T11:00:16;99715.09;;;12.68;61.29
70544;BME280;58097;48.364;-1.224;2023-04-25T11:02:51;99720.19;;;12.56;61.25
70544;BME280;58097;48.364;-1.224;2023-04-25T11:05:34;99717.63;;;12.47;60.63
70544;BME280;58097;48.364;-1.224;2023-04-25T11:08:01;99720.19;;;12.56;58.43
70544;BME280;58097;48.364;-1.224;2023-04-25T11:10:29;99718.03;;;12.75;59.96
70544;BME280;58097;48.364;-1.224;2023-04-25T11:12:59;99713.16;;;12.29;56.61
70544;BME280;58097;48.364;-1.224;2023-04-25T11:15:25;99716.06;;;12.44;61.01
70544;BME280;58097;48.364;-1.224;2023-04-25T11:17:52;99716.75;;;12.46;60.15
70544;BME280;58097;48.364;-1.224;2023-04-25T11:20:17;99714.19;;;12.28;62.18
70544;BME280;58097;48.364;-1.224;2023-04-25T11:22:45;99710.56;;;12.28;59.82
70544;BME280;58097;48.364;-1.224;2023-04-25T11:25:11;99725.81;;;12.24;60.65
70544;BME280;58097;48.364;-1.224;2023-04-25T11:27:49;99719.84;;;12.43;60.56
70544;BME280;58097;48.364;-1.224;2023-04-25T11:30:16;99709.44;;;12.53;62.30
70544;BME280;58097;48.364;-1.224;2023-04-25T11:32:42;99712.00;;;12.63;60.65
70544;BME280;58097;48.364;-1.224;2023-04-25T11:35:11;99710.88;;;12.33;58.13
70544;BME280;58097;48.364;-1.224;2023-04-25T11:37:38;99713.31;;;12.36;59.16
70544;BME280;58097;48.364;-1.224;2023-04-25T11:40:05;99701.00;;;12.47;60.92
70544;BME280;58097;48.364;-1.224;2023-04-25T11:42:32;99712.22;;;12.53;61.80
70544;BME280;58097;48.364;-1.224;2023-04-25T11:44:58;99705.00;;;12.83;61.79
70544;BME280;58097;48.364;-1.224;2023-04-25T11:47:31;99698.63;;;13.06;61.04
70544;BME280;58097;48.364;-1.224;2023-04-25T11:50:03;99699.50;;;13.06;59.37
70544;BME280;58097;48.364;-1.224;2023-04-25T11:55:16;99706.78;;;13.07;58.98
70544;BME280;58097;48.364;-1.224;2023-04-25T11:57:46;99705.84;;;13.15;58.73
70544;BME280;58097;48.364;-1.224;2023-04-25T12:00:13;99711.03;;;12.87;56.65
70544;BME280;58097;48.364;-1.224;2023-04-25T12:02:41;99714.66;;;12.87;58.57
70544;BME280;58097;48.364;-1.224;2023-04-25T12:05:08;99709.94;;;12.96;59.36
70544;BME280;58097;48.364;-1.224;2023-04-25T12:07:34;99709.50;;;13.15;60.24
70544;BME280;58097;48.364;-1.224;2023-04-25T12:10:07;99705.59;;;13.32;58.12
70544;BME280;58097;48.364;-1.224;2023-04-25T12:12:36;99709.78;;;13.51;58.18
70544;BME280;58097;48.364;-1.224;2023-04-25T12:15:18;99717.56;;;13.79;58.10
70544;BME280;58097;48.364;-1.224;2023-04-25T12:17:50;99708.63;;;13.46;56.69
70544;BME280;58097;48.364;-1.224;2023-04-25T12:20:21;99713.00;;;13.63;57.25
70544;BME280;58097;48.364;-1.224;2023-04-25T12:22:49;99720.81;;;13.82;59.11
70544;BME280;58097;48.364;-1.224;2023-04-25T12:25:34;99719.44;;;14.01;55.15
70544;BME280;58097;48.364;-1.224;2023-04-25T12:33:34;99728.44;;;13.88;56.69
70544;BME280;58097;48.364;-1.224;2023-04-25T12:36:00;99726.06;;;13.77;56.91
70544;BME280;58097;48.364;-1.224;2023-04-25T12:38:30;99724.22;;;13.70;57.50
70544;BME280;58097;48.364;-1.224;2023-04-25T12:40:57;99715.13;;;13.61;58.11
70544;BME280;58097;48.364;-1.224;2023-04-25T12:43:23;99710.66;;;13.52;57.23
70544;BME280;58097;48.364;-1.224;2023-04-25T12:45:50;99703.81;;;13.40;55.58
70544;BME280;58097;48.364;-1.224;2023-04-25T12:48:16;99715.91;;;13.47;58.32
70544;BME280;58097;48.364;-1.224;2023-04-25T12:50:41;99710.91;;;13.65;58.62
70544;BME280;58097;48.364;-1.224;2023-04-25T12:53:07;99709.03;;;13.80;59.93
70544;BME280;58097;48.364;-1.224;2023-04-25T12:55:33;99714.53;;;13.88;58.63
70544;BME280;58097;48.364;-1.224;2023-04-25T12:57:58;99714.28;;;13.75;57.27
70544;BME280;58097;48.364;-1.224;2023-04-25T13:00:23;99713.50;;;13.67;55.52
70544;BME280;58097;48.364;-1.224;2023-04-25T13:02:49;99710.78;;;13.36;56.08